createdAt,value
2023-03-26T00:00:26.795Z,7.20
2023-03-26T00:06:00.970Z,7.24
2023-03-26T00:11:06.569Z,7.27
2023-03-26T00:16:12.394Z,7.32
2023-03-26T00:21:17.740Z,7.37
2023-03-26T00:26:20.943Z,7.41
2023-03-26T00:31:24.259Z,7.43
2023-03-26T00:36:27.405Z,7.44
2023-03-26T00:41:31.357Z,7.45
2023-03-26T00:46:34.438Z,7.48
2023-03-26T00:51:39.471Z,7.50
2023-03-26T00:56:42.607Z,7.51
2023-03-26T01:01:45.723Z,7.49
2023-03-26T01:06:48.995Z,7.44
2023-03-26T01:11:52.344Z,7.41
2023-03-26T01:16:56.551Z,7.38
2023-03-26T01:22:00.877Z,7.37
2023-03-26T01:27:26.727Z,7.37
2023-03-26T01:32:38.400Z,7.35
2023-03-26T01:37:46.976Z,7.33
2023-03-26T01:43:12.886Z,7.32
2023-03-26T01:48:16.032Z,7.31
2023-03-26T01:53:19.133Z,7.30
2023-03-26T01:58:32.788Z,7.27
2023-03-26T02:03:45.094Z,7.20
2023-03-26T02:08:55.696Z,7.19
2023-03-26T02:13:59.314Z,7.18
2023-03-26T02:19:02.431Z,7.20
2023-03-26T02:24:05.534Z,7.22
2023-03-26T02:29:08.851Z,7.23
2023-03-26T02:34:12.276Z,7.24
2023-03-26T02:39:15.455Z,7.24
2023-03-26T02:44:18.381Z,7.23
2023-03-26T02:49:21.588Z,7.24
2023-03-26T02:54:24.496Z,7.26
2023-03-26T02:59:27.704Z,7.25
2023-03-26T03:04:30.609Z,7.17
2023-03-26T03:09:33.512Z,7.06
2023-03-26T03:14:36.724Z,6.95
2023-03-26T03:19:40.142Z,6.88
2023-03-26T03:24:43.998Z,6.83
2023-03-26T03:29:47.099Z,6.80
2023-03-26T03:34:51.784Z,6.80
2023-03-26T03:39:54.735Z,6.83
2023-03-26T03:44:57.635Z,6.85
2023-03-26T03:50:00.746Z,6.87
2023-03-26T03:55:04.390Z,6.88
2023-03-26T04:00:11.890Z,6.91
2023-03-26T04:05:14.779Z,6.94
2023-03-26T04:10:17.794Z,6.94
2023-03-26T04:15:21.330Z,6.88
2023-03-26T04:20:24.525Z,6.82
2023-03-26T04:25:30.697Z,6.76
2023-03-26T04:30:35.443Z,6.71
2023-03-26T04:35:42.127Z,6.69
2023-03-26T04:40:48.001Z,6.68
2023-03-26T04:45:52.574Z,6.70
2023-03-26T04:50:55.663Z,6.72
2023-03-26T04:56:09.527Z,6.74
2023-03-26T05:01:12.564Z,6.76
2023-03-26T05:06:17.883Z,6.79
2023-03-26T05:11:21.228Z,6.81
2023-03-26T05:16:25.064Z,6.86
2023-03-26T05:21:27.941Z,6.89
2023-03-26T05:26:30.836Z,6.93
2023-03-26T05:31:33.741Z,7.05
2023-03-26T05:36:37.098Z,7.17
2023-03-26T05:41:39.960Z,7.24
2023-03-26T05:46:42.979Z,7.34
2023-03-26T05:51:46.588Z,7.48
2023-03-26T05:56:49.512Z,7.63
2023-03-26T06:01:54.785Z,7.69
2023-03-26T06:06:58.167Z,7.65
2023-03-26T06:12:01.093Z,7.68
2023-03-26T06:17:04.501Z,7.84
2023-03-26T06:22:07.398Z,8.18
2023-03-26T06:27:10.399Z,8.55
2023-03-26T06:32:19.621Z,8.82
2023-03-26T06:37:23.272Z,9.10
2023-03-26T06:43:06.394Z,9.61
2023-03-26T06:47:49.358Z,10.36
2023-03-26T06:52:56.564Z,10.25
2023-03-26T06:57:59.569Z,9.89
2023-03-26T07:03:04.885Z,9.63
2023-03-26T07:08:07.860Z,9.64
2023-03-26T07:13:11.191Z,9.70
2023-03-26T07:18:14.055Z,9.50
2023-03-26T07:23:20.913Z,9.30
2023-03-26T07:28:27.258Z,9.05
2023-03-26T07:34:04.266Z,8.88
2023-03-26T07:39:16.154Z,8.87
2023-03-26T07:44:41.161Z,9.01
2023-03-26T07:49:44.908Z,9.22
2023-03-26T07:54:48.219Z,9.36
2023-03-26T08:00:12.364Z,9.58
2023-03-26T08:05:26.488Z,9.60
2023-03-26T08:10:58.879Z,9.68
2023-03-26T08:16:19.634Z,10.22
2023-03-26T08:21:28.784Z,10.94
2023-03-26T08:26:35.448Z,11.31
2023-03-26T08:31:41.670Z,13.60
2023-03-26T08:36:44.840Z,14.23
2023-03-26T08:42:16.105Z,12.98
2023-03-26T08:47:41.444Z,11.74
2023-03-26T08:53:09.632Z,10.90
2023-03-26T08:58:31.171Z,10.39
2023-03-26T09:03:43.147Z,10.32
2023-03-26T09:09:05.654Z,11.02
2023-03-26T09:14:14.598Z,12.52
2023-03-26T09:19:50.580Z,12.41
2023-03-26T09:25:16.732Z,11.48
2023-03-26T09:30:28.453Z,10.45
2023-03-26T09:35:54.071Z,9.83
2023-03-26T09:41:13.062Z,9.30
2023-03-26T09:46:34.823Z,9.04
2023-03-26T09:51:54.656Z,9.63
2023-03-26T09:57:25.791Z,13.03
2023-03-26T10:02:45.422Z,18.37
2023-03-26T10:08:08.343Z,21.85
2023-03-26T10:13:21.702Z,19.92
2023-03-26T10:18:43.346Z,16.51
2023-03-26T10:24:20.140Z,15.12
2023-03-26T10:29:44.749Z,16.23
2023-03-26T10:35:06.392Z,16.08
2023-03-26T10:40:44.422Z,15.86
2023-03-26T10:46:04.290Z,15.61
2023-03-26T10:51:32.007Z,14.68
2023-03-26T10:56:46.110Z,14.13
2023-03-26T11:01:57.938Z,15.37
2023-03-26T11:07:25.988Z,14.62
2023-03-26T11:13:04.890Z,13.65
2023-03-26T11:18:23.908Z,15.54
2023-03-26T11:23:41.115Z,17.90
2023-03-26T11:29:31.481Z,17.34
2023-03-26T11:35:01.500Z,15.57
2023-03-26T11:40:30.125Z,16.62
2023-03-26T11:45:39.480Z,17.80
2023-03-26T11:50:47.300Z,18.32
2023-03-26T11:56:04.339Z,21.92
2023-03-26T12:01:16.991Z,22.47
2023-03-26T12:06:27.329Z,20.64
2023-03-26T12:11:35.528Z,17.94
2023-03-26T12:16:38.696Z,14.82
2023-03-26T12:21:52.361Z,12.02
2023-03-26T12:27:20.836Z,10.22
2023-03-26T12:32:32.545Z,9.50
2023-03-26T12:37:47.430Z,9.65
2023-03-26T12:44:54.605Z,10.08
2023-03-26T12:48:26.473Z,10.64
2023-03-26T12:53:48.477Z,10.95
2023-03-26T12:59:21.996Z,11.61
2023-03-26T13:04:43.610Z,13.62
2023-03-26T13:10:35.276Z,17.77
2023-03-26T13:15:47.416Z,20.20
2023-03-26T13:21:04.764Z,22.06
2023-03-26T13:26:34.084Z,23.57
2023-03-26T13:31:51.523Z,22.54
2023-03-26T13:37:04.437Z,20.18
2023-03-26T13:42:37.983Z,17.94
2023-03-26T13:47:49.227Z,17.07
2023-03-26T13:53:15.646Z,16.90
2023-03-26T13:58:24.491Z,15.96
2023-03-26T14:03:30.600Z,14.44
2023-03-26T14:08:39.819Z,13.22
2023-03-26T14:13:56.854Z,12.57
2023-03-26T14:19:09.891Z,12.55
2023-03-26T14:24:50.195Z,12.74
2023-03-26T14:30:05.043Z,12.21
2023-03-26T14:35:28.769Z,11.50
2023-03-26T14:41:10.880Z,10.84
2023-03-26T14:46:19.975Z,10.44
2023-03-26T14:51:47.108Z,10.27
2023-03-26T14:57:24.090Z,10.22
2023-03-26T15:03:02.388Z,10.32
2023-03-26T15:08:11.185Z,10.34
2023-03-26T15:13:50.641Z,10.58
2023-03-26T15:19:02.660Z,10.83
2023-03-26T15:24:43.145Z,10.84
2023-03-26T15:30:15.336Z,10.82
2023-03-26T15:35:18.252Z,11.48
2023-03-26T15:40:47.866Z,11.60
2023-03-26T15:46:22.155Z,11.39
2023-03-26T15:51:47.271Z,10.96
2023-03-26T15:57:17.315Z,10.48
2023-03-26T16:02:36.626Z,10.12
2023-03-26T16:07:48.016Z,10.00
2023-03-26T16:13:22.843Z,10.05
2023-03-26T16:18:39.181Z,9.99
2023-03-26T16:23:47.940Z,9.76
2023-03-26T16:28:53.036Z,9.44
2023-03-26T16:34:04.963Z,9.09
2023-03-26T16:39:08.674Z,8.78
2023-03-26T16:44:26.530Z,8.53
2023-03-26T16:49:47.248Z,8.28
2023-03-26T16:55:20.166Z,8.04
2023-03-26T17:00:31.494Z,7.86
2023-03-26T17:05:59.454Z,7.74
2023-03-26T17:11:24.371Z,7.67
2023-03-26T17:17:01.165Z,7.61
2023-03-26T17:22:28.857Z,7.59
2023-03-26T17:27:44.164Z,7.62
2023-03-26T17:32:56.110Z,7.67
2023-03-26T17:38:00.492Z,7.70
2023-03-26T17:43:09.557Z,7.69
2023-03-26T17:48:21.884Z,7.62
2023-03-26T17:53:31.607Z,7.57
2023-03-26T17:58:42.720Z,7.52
2023-03-26T18:03:50.362Z,7.48
2023-03-26T18:09:12.279Z,7.44
2023-03-26T18:14:47.579Z,7.40
2023-03-26T18:19:53.652Z,7.31
2023-03-26T18:25:01.710Z,7.21
2023-03-26T18:30:20.673Z,7.16
2023-03-26T18:35:24.850Z,7.16
2023-03-26T18:40:34.247Z,7.17
2023-03-26T18:45:39.752Z,7.18
2023-03-26T18:50:43.035Z,7.18
2023-03-26T18:55:46.541Z,7.16
2023-03-26T19:00:53.141Z,7.11
2023-03-26T19:05:58.241Z,7.05
2023-03-26T19:11:04.693Z,6.98
2023-03-26T19:16:17.544Z,6.94
2023-03-26T19:21:23.520Z,6.92
2023-03-26T19:26:26.904Z,6.90
2023-03-26T19:31:34.620Z,6.86
2023-03-26T19:37:01.200Z,6.84
2023-03-26T19:42:06.622Z,6.79
2023-03-26T19:47:26.803Z,6.70
2023-03-26T19:52:38.566Z,6.55
2023-03-26T19:57:41.474Z,6.40
2023-03-26T20:02:46.504Z,6.24
2023-03-26T20:07:50.774Z,6.08
2023-03-26T20:12:53.673Z,5.87
2023-03-26T20:17:56.602Z,5.63
2023-03-26T20:22:59.581Z,5.38
2023-03-26T20:28:03.102Z,5.13
2023-03-26T20:33:12.128Z,4.92
2023-03-26T20:38:18.214Z,4.75
2023-03-26T20:43:25.204Z,4.62
2023-03-26T20:48:28.020Z,4.52
2023-03-26T20:53:30.921Z,4.44
2023-03-26T20:58:33.754Z,4.35
2023-03-26T21:03:37.652Z,4.30
2023-03-26T21:08:44.726Z,4.26
2023-03-26T21:13:58.558Z,4.22
2023-03-26T21:19:03.154Z,4.18
2023-03-26T21:24:33.252Z,4.09
2023-03-26T21:29:37.433Z,3.96
2023-03-26T21:34:47.862Z,3.86
2023-03-26T21:40:00.002Z,3.75
2023-03-26T21:45:03.918Z,3.65
2023-03-26T21:50:08.536Z,3.56
2023-03-26T21:55:13.299Z,3.49
2023-03-26T22:00:18.830Z,3.41
2023-03-26T22:05:47.713Z,3.33
2023-03-26T22:10:50.543Z,3.22
2023-03-26T22:15:53.821Z,3.11
2023-03-26T22:20:59.250Z,3.00
2023-03-26T22:26:03.308Z,2.84
2023-03-26T22:31:08.998Z,2.70
2023-03-26T22:36:22.561Z,2.62
2023-03-26T22:41:26.711Z,2.58
2023-03-26T22:46:31.183Z,2.58
2023-03-26T22:51:34.252Z,2.57
2023-03-26T22:56:37.394Z,2.49
2023-03-26T23:01:40.378Z,2.37
2023-03-26T23:06:43.271Z,2.24
2023-03-26T23:11:46.301Z,2.14
2023-03-26T23:16:50.718Z,2.06
2023-03-26T23:21:53.624Z,2.01
2023-03-26T23:26:56.426Z,1.99
2023-03-26T23:32:00.445Z,1.98
2023-03-26T23:37:03.366Z,1.93
2023-03-26T23:42:06.281Z,1.88
2023-03-26T23:47:10.605Z,1.88
2023-03-26T23:52:13.923Z,1.88
2023-03-26T23:57:18.599Z,1.85
